Time;durP1;ratioP1;P1;durP2;ratioP2;P2;SDS_P1;SDS_P2;PMS_P1;PMS_P2;Temp;Humidity;BMP_temperature;BMP_pressure;BME280_temperature;BME280_humidity;BME280_pressure;Samples;Min_cycle;Max_cycle;Signal;HPM_P1;HPM_P2
2023/06/25 00:01:06;;;;;;;13.70;7.18;;;;;;;21.22;76.67;94685.09;4209758;28;20591;-56
2023/06/25 00:03:08;;;;;;;11.13;7.18;;;;;;;21.24;77.08;94686.47;4202627;28;20121;-56
2023/06/25 00:05:10;;;;;;;12.63;7.65;;;;;;;21.29;77.02;94688.47;4199801;28;20181;-55
2023/06/25 00:07:11;;;;;;;11.05;6.72;;;;;;;21.33;77.36;94688.84;4195004;28;20132;-52
2023/06/25 00:09:13;;;;;;;14.57;7.85;;;;;;;21.39;77.88;94687.94;4209182;28;20098;-53
2023/06/25 00:11:15;;;;;;;9.32;7.65;;;;;;;21.41;77.77;94677.84;4197103;28;20079;-52
2023/06/25 00:13:17;;;;;;;12.73;7.60;;;;;;;21.43;77.87;94679.28;4209916;28;20050;-57
2023/06/25 00:15:18;;;;;;;10.45;7.60;;;;;;;21.46;78.05;94683.34;4202269;28;20743;-55
2023/06/25 00:17:21;;;;;;;12.35;6.70;;;;;;;21.45;77.20;94684.41;4204552;28;20151;-55
2023/06/25 00:19:25;;;;;;;9.93;7.23;;;;;;;21.37;76.60;94684.69;4207811;28;20048;-53
2023/06/25 00:21:27;;;;;;;9.30;6.38;;;;;;;21.30;76.60;94678.63;4209671;28;20307;-54
2023/06/25 00:23:29;;;;;;;9.63;6.80;;;;;;;21.19;76.88;94680.22;4209921;28;20046;-56
2023/06/25 00:25:30;;;;;;;9.57;6.85;;;;;;;21.08;77.29;94684.47;4210282;28;20116;-54
2023/06/25 00:27:32;;;;;;;14.82;6.85;;;;;;;21.00;77.28;94687.41;4206591;28;20493;-57
2023/06/25 00:29:34;;;;;;;9.68;6.72;;;;;;;20.97;77.05;94682.53;4201599;28;20387;-59
2023/06/25 00:31:37;;;;;;;11.23;6.50;;;;;;;20.79;77.17;94688.69;4210525;28;20197;-56
2023/06/25 00:33:41;;;;;;;12.52;7.53;;;;;;;20.23;79.72;94688.63;4210161;28;20184;-59
2023/06/25 00:36:06;;;;;;;13.73;7.30;;;;;;;19.76;81.80;94684.72;4194193;28;20052;-59
2023/06/25 00:38:08;;;;;;;9.60;7.05;;;;;;;19.63;82.81;94688.25;4205382;28;20142;-59
2023/06/25 00:40:10;;;;;;;11.43;7.07;;;;;;;19.79;83.55;94687.78;4206606;28;20422;-60
2023/06/25 00:42:12;;;;;;;10.93;6.65;;;;;;;19.85;82.52;94688.75;4210840;28;20048;-59
2023/06/25 00:44:14;;;;;;;8.60;6.85;;;;;;;19.62;82.28;94681.34;4211017;28;20048;-57
2023/06/25 00:46:15;;;;;;;10.00;6.53;;;;;;;19.64;82.61;94674.78;4207758;28;20143;-58
2023/06/25 00:48:21;;;;;;;11.63;7.22;;;;;;;19.61;82.57;94671.72;4208678;28;20185;-58
2023/06/25 00:50:23;;;;;;;10.10;7.18;;;;;;;19.54;81.84;94660.34;4210588;28;20039;-59
2023/06/25 00:52:25;;;;;;;9.43;6.70;;;;;;;19.50;82.09;94665.25;4209649;28;20082;-58
2023/06/25 00:54:27;;;;;;;9.05;6.78;;;;;;;19.64;82.50;94666.81;4202762;28;20072;-58
2023/06/25 00:56:29;;;;;;;13.50;7.25;;;;;;;19.81;82.77;94664.44;4205790;28;20437;-58
2023/06/25 00:58:34;;;;;;;12.95;7.50;;;;;;;19.98;82.40;94670.03;4207152;28;20065;-59
2023/06/25 01:00:36;;;;;;;9.52;6.20;;;;;;;20.12;81.25;94669.91;4205391;28;20366;-59
2023/06/25 01:02:46;;;;;;;9.95;6.65;;;;;;;20.21;80.20;94668.59;4203659;28;20118;-58
2023/06/25 01:05:13;;;;;;;10.32;7.32;;;;;;;20.16;79.67;94671.09;4204969;28;20040;-59
2023/06/25 01:07:17;;;;;;;11.80;6.28;;;;;;;20.17;79.58;94667.41;4206410;28;20047;-56
2023/06/25 01:09:20;;;;;;;11.02;6.88;;;;;;;20.13;79.67;94676.84;4203316;28;20049;-55
2023/06/25 01:11:22;;;;;;;;;;;;;;;20.12;79.59;94680.56;4203785;28;20074;-55
2023/06/25 01:13:24;;;;;;;9.27;7.15;;;;;;;20.00;79.55;94685.75;4211092;28;19920;-59
2023/06/25 01:15:26;;;;;;;9.98;7.25;;;;;;;19.48;82.43;94691.22;4209476;28;20044;-58
2023/06/25 01:17:29;;;;;;;10.27;7.30;;;;;;;18.97;85.72;94690.28;4210788;28;20043;-53
2023/06/25 01:19:31;;;;;;;12.73;7.55;;;;;;;18.70;86.94;94694.03;4207394;28;20052;-56
2023/06/25 01:21:33;;;;;;;9.15;7.00;;;;;;;18.48;88.40;94696.97;4204228;28;20044;-57
2023/06/25 01:23:38;;;;;;;12.80;7.45;;;;;;;18.53;89.13;94691.03;4204578;28;20240;-55
2023/06/25 01:25:39;;;;;;;9.57;7.53;;;;;;;18.51;88.91;94693.06;4208580;28;20048;-54
2023/06/25 01:27:41;;;;;;;12.38;7.25;;;;;;;18.54;89.34;94688.16;4209875;28;20059;-55
2023/06/25 01:29:44;;;;;;;13.75;7.32;;;;;;;18.67;88.70;94689.97;4208202;28;20063;-60
2023/06/25 01:31:45;;;;;;;11.00;6.72;;;;;;;18.70;88.42;94697.50;4205089;28;20051;-59
2023/06/25 01:33:47;;;;;;;14.10;6.95;;;;;;;18.86;87.59;94703.38;4204057;28;20060;-59
2023/06/25 01:35:49;;;;;;;13.43;6.85;;;;;;;18.86;86.68;94698.88;4194386;28;20201;-59
2023/06/25 01:37:50;;;;;;;10.50;6.90;;;;;;;19.02;86.18;94693.13;4201867;28;20048;-60
2023/06/25 01:39:55;;;;;;;10.60;6.38;;;;;;;18.98;85.84;94696.41;4198289;28;20048;-58
2023/06/25 01:41:56;;;;;;;10.75;6.25;;;;;;;18.96;85.25;94698.47;4196106;28;20511;-59
2023/06/25 01:43:58;;;;;;;10.93;6.63;;;;;;;19.02;84.64;94701.09;4209518;28;20066;-59
2023/06/25 01:46:00;;;;;;;9.43;6.22;;;;;;;19.10;84.30;94705.34;4206140;28;20617;-60
2023/06/25 01:48:02;;;;;;;11.32;6.70;;;;;;;19.21;83.63;94698.56;4198370;28;20124;-60
2023/06/25 01:50:06;;;;;;;10.82;6.45;;;;;;;19.24;83.42;94690.94;4200887;28;20095;-59
2023/06/25 01:52:08;;;;;;;13.93;6.40;;;;;;;19.35;82.72;94693.97;4199813;28;20079;-58
2023/06/25 01:54:10;;;;;;;10.43;6.30;;;;;;;19.40;81.63;94694.97;4204238;28;20078;-58
2023/06/25 01:56:12;;;;;;;16.25;6.05;;;;;;;19.40;80.92;94688.81;4204307;28;20574;-57
2023/06/25 01:58:13;;;;;;;10.18;5.88;;;;;;;19.45;80.64;94699.63;4204914;28;20547;-60
2023/06/25 02:00:15;;;;;;;9.75;5.88;;;;;;;19.46;80.52;94697.78;4206470;28;20406;-57
2023/06/25 02:02:17;;;;;;;11.50;6.35;;;;;;;19.49;80.40;94697.34;4206479;28;20063;-58
2023/06/25 02:04:19;;;;;;;12.50;6.57;;;;;;;19.45;80.40;94694.31;4201980;28;20043;-58
2023/06/25 02:06:21;;;;;;;9.88;5.38;;;;;;;19.50;80.12;94689.16;4208080;28;20495;-58
2023/06/25 02:08:22;;;;;;;9.32;6.35;;;;;;;19.48;80.16;94695.72;4208568;28;20123;-59
2023/06/25 02:10:25;;;;;;;14.38;6.90;;;;;;;19.48;80.91;94696.53;4209877;28;20642;-59
2023/06/25 02:12:26;;;;;;;12.27;7.20;;;;;;;19.52;80.71;94702.25;4212262;28;20058;-59
2023/06/25 02:14:28;;;;;;;13.65;6.85;;;;;;;19.51;80.74;94700.59;4212953;28;20113;-60
2023/06/25 02:16:30;;;;;;;15.05;7.07;;;;;;;19.53;80.49;94699.38;4208354;28;20074;-57
2023/06/25 02:18:32;;;;;;;15.65;7.00;;;;;;;19.48;80.64;94696.53;4212977;28;20048;-61
2023/06/25 02:20:33;;;;;;;11.57;6.68;;;;;;;19.50;80.52;94701.66;4212287;28;20385;-58
2023/06/25 02:22:35;;;;;;;13.68;7.28;;;;;;;19.58;80.83;94715.50;4210701;28;20046;-59
2023/06/25 02:24:37;;;;;;;15.63;7.82;;;;;;;19.63;80.52;94705.00;4207758;28;20512;-59
2023/06/25 02:26:40;;;;;;;14.98;7.50;;;;;;;19.63;80.36;94710.34;4209003;28;20452;-59
2023/06/25 02:28:41;;;;;;;13.55;7.93;;;;;;;19.61;79.95;94696.44;4210637;28;20051;-59
2023/06/25 02:30:43;;;;;;;14.38;7.82;;;;;;;19.61;79.81;94696.44;4211370;28;20063;-59
2023/06/25 02:32:45;;;;;;;12.57;7.88;;;;;;;19.68;79.71;94695.59;4212775;28;20059;-61
2023/06/25 02:34:47;;;;;;;17.92;8.48;;;;;;;19.65;79.52;94697.66;4213473;28;20051;-59
2023/06/25 02:36:50;;;;;;;9.93;7.57;;;;;;;19.65;79.95;94695.00;4199719;28;20041;-60
2023/06/25 02:38:52;;;;;;;14.75;8.13;;;;;;;19.60;80.05;94692.16;4207535;28;20063;-58
2023/06/25 02:40:54;;;;;;;13.45;7.78;;;;;;;19.62;80.06;94700.75;4197624;28;20078;-60
2023/06/25 02:42:56;;;;;;;13.50;8.00;;;;;;;19.72;80.21;94702.94;4198210;28;20106;-59
2023/06/25 02:44:57;;;;;;;13.52;7.93;;;;;;;19.71;79.70;94701.31;4212052;28;20055;-57
2023/06/25 02:46:59;;;;;;;13.18;7.70;;;;;;;19.68;79.84;94700.91;4212995;28;20436;-59
2023/06/25 02:49:01;;;;;;;10.73;7.57;;;;;;;19.63;79.39;94699.69;4212701;28;20539;-59
2023/06/25 02:51:03;;;;;;;15.32;8.00;;;;;;;19.63;79.66;94706.88;4212046;28;20131;-59
2023/06/25 02:53:05;;;;;;;13.10;7.82;;;;;;;19.73;80.04;94703.78;4197211;28;20459;-59
2023/06/25 02:55:07;;;;;;;11.63;7.25;;;;;;;19.75;79.57;94715.00;4203759;28;20086;-59
2023/06/25 02:57:09;;;;;;;10.02;7.60;;;;;;;19.77;79.41;94707.63;4211838;28;20040;-60
2023/06/25 02:59:10;;;;;;;14.35;7.50;;;;;;;19.83;79.46;94706.75;4200391;28;20053;-60
2023/06/25 03:01:12;;;;;;;12.50;7.47;;;;;;;19.81;79.00;94706.16;4201668;28;20048;-60
2023/06/25 03:03:14;;;;;;;11.73;7.60;;;;;;;19.86;79.07;94708.19;4210218;28;20052;-61
2023/06/25 03:05:16;;;;;;;15.55;7.55;;;;;;;19.84;78.92;94711.06;4210943;28;20056;-60
2023/06/25 03:07:17;;;;;;;14.60;7.85;;;;;;;19.86;79.14;94714.31;4210395;28;20059;-57
2023/06/25 03:09:19;;;;;;;14.02;7.53;;;;;;;19.79;78.79;94709.03;4211296;28;20430;-59
2023/06/25 03:11:21;;;;;;;12.82;8.02;;;;;;;19.74;79.19;94722.16;4212486;28;20059;-57
2023/06/25 03:13:22;;;;;;;12.23;7.72;;;;;;;19.69;79.33;94721.16;4212645;28;20365;-57
2023/06/25 03:15:24;;;;;;;13.98;7.82;;;;;;;19.57;79.72;94721.00;4205391;28;20040;-61
2023/06/25 03:17:26;;;;;;;12.13;7.82;;;;;;;19.59;80.43;94719.75;4211936;28;20571;-57
2023/06/25 03:19:28;;;;;;;12.75;8.65;;;;;;;19.52;80.99;94703.06;4204224;28;20053;-57
2023/06/25 03:21:29;;;;;;;15.15;8.45;;;;;;;19.14;81.83;94703.06;4193787;28;20052;-63
2023/06/25 03:23:31;;;;;;;19.25;9.70;;;;;;;19.10;83.31;94701.84;4209890;28;20051;-58
2023/06/25 03:25:33;;;;;;;15.10;9.13;;;;;;;19.17;83.90;94700.81;4211788;28;20047;-58
2023/06/25 03:27:35;;;;;;;14.05;8.55;;;;;;;19.32;83.96;94705.03;4211485;28;20047;-59
2023/06/25 03:29:36;;;;;;;14.35;9.05;;;;;;;19.40;83.13;94705.59;4210941;28;20428;-59
2023/06/25 03:31:38;;;;;;;14.27;9.57;;;;;;;19.54;82.74;94697.53;4211977;28;20052;-59
2023/06/25 03:33:40;;;;;;;16.55;9.52;;;;;;;19.51;82.32;94697.94;4211311;28;20092;-60
2023/06/25 03:35:41;;;;;;;17.50;9.57;;;;;;;19.62;82.12;94703.41;4209710;28;20047;-59
2023/06/25 03:37:43;;;;;;;14.73;9.55;;;;;;;19.72;82.27;94708.25;4211077;28;20502;-58
2023/06/25 03:39:45;;;;;;;13.60;9.45;;;;;;;19.83;82.44;94706.75;4210218;28;20467;-59
2023/06/25 03:41:46;;;;;;;13.65;9.65;;;;;;;19.94;82.31;94702.56;4209347;28;20069;-59
2023/06/25 03:43:48;;;;;;;13.32;9.68;;;;;;;19.98;82.00;94698.44;4212035;28;20048;-58
2023/06/25 03:45:50;;;;;;;16.38;10.40;;;;;;;19.96;81.18;94696.03;4210390;28;20211;-58
2023/06/25 03:47:51;;;;;;;13.75;9.20;;;;;;;19.93;81.13;94692.97;4211667;28;20051;-58
2023/06/25 03:49:53;;;;;;;15.30;9.80;;;;;;;19.98;81.37;94691.31;4207766;28;20083;-58
2023/06/25 03:51:55;;;;;;;17.38;10.48;;;;;;;20.04;81.50;94692.28;4210086;28;20052;-60
2023/06/25 03:53:56;;;;;;;14.23;9.70;;;;;;;20.07;81.04;94689.19;4210613;28;20143;-59
2023/06/25 03:55:58;;;;;;;16.42;10.27;;;;;;;20.10;80.55;94672.78;4209756;28;20493;-61
2023/06/25 03:58:00;;;;;;;12.30;9.55;;;;;;;19.98;79.89;94683.34;4211521;28;20509;-61
2023/06/25 04:00:02;;;;;;;12.77;9.35;;;;;;;19.95;80.31;94680.28;4210286;28;20102;-59
2023/06/25 04:02:05;;;;;;;14.02;10.57;;;;;;;19.87;80.20;94672.59;4211605;28;20419;-59
2023/06/25 04:04:07;;;;;;;15.38;9.88;;;;;;;19.85;80.68;94670.13;4199619;28;20594;-60
2023/06/25 04:06:09;;;;;;;13.80;9.52;;;;;;;19.83;80.63;94661.56;4206003;28;20075;-61
2023/06/25 04:08:10;;;;;;;17.80;10.63;;;;;;;19.80;80.98;94654.03;4194397;28;20041;-57
2023/06/25 04:10:13;;;;;;;17.13;11.82;;;;;;;19.68;81.74;94648.59;4205728;28;20055;-58
2023/06/25 04:12:14;;;;;;;17.30;10.63;;;;;;;19.64;82.22;94642.88;4210948;28;20052;-59
2023/06/25 04:14:16;;;;;;;15.80;10.55;;;;;;;19.64;82.86;94632.25;4209951;28;20070;-59
2023/06/25 04:16:18;;;;;;;17.48;11.45;;;;;;;19.79;83.41;94628.50;4205180;28;20670;-59
2023/06/25 04:18:19;;;;;;;16.20;11.13;;;;;;;19.89;83.31;94623.47;4210944;28;20371;-58
2023/06/25 04:20:25;;;;;;;17.55;11.30;;;;;;;19.98;83.20;94626.66;4210156;28;20745;-59
2023/06/25 04:22:26;;;;;;;14.65;10.98;;;;;;;20.09;83.15;94622.47;4210948;28;20075;-57
2023/06/25 04:24:28;;;;;;;18.45;11.15;;;;;;;20.14;82.37;94620.78;4210946;28;20058;-58
2023/06/25 04:26:30;;;;;;;19.58;11.02;;;;;;;20.21;82.42;94626.84;4210029;28;20126;-57
2023/06/25 04:28:31;;;;;;;16.33;11.35;;;;;;;20.29;82.32;94635.59;4195501;28;20051;-57
2023/06/25 04:30:33;;;;;;;17.58;11.07;;;;;;;20.33;82.32;94640.25;4208409;28;20084;-58
2023/06/25 04:32:35;;;;;;;18.85;11.43;;;;;;;20.35;82.03;94654.13;4211112;28;20383;-57
2023/06/25 04:34:36;;;;;;;17.40;11.10;;;;;;;20.40;81.96;94656.94;4210860;28;20050;-59
2023/06/25 04:36:38;;;;;;;16.98;10.70;;;;;;;20.45;81.66;94662.41;4210841;28;20079;-59
2023/06/25 04:38:40;;;;;;;17.75;11.15;;;;;;;20.45;80.83;94654.41;4208946;28;20046;-59
2023/06/25 04:40:42;;;;;;;15.85;10.73;;;;;;;20.47;81.02;94659.53;4209104;28;20405;-57
2023/06/25 04:42:43;;;;;;;17.50;11.02;;;;;;;20.46;80.58;94664.03;4202550;28;20071;-57
2023/06/25 04:44:45;;;;;;;16.92;11.00;;;;;;;20.40;80.64;94666.78;4207564;28;20481;-57
2023/06/25 04:46:47;;;;;;;14.60;10.85;;;;;;;20.36;80.79;94674.38;4209307;28;20044;-59
2023/06/25 04:48:50;;;;;;;14.80;10.05;;;;;;;20.38;80.71;94674.97;4210048;28;20059;-58
2023/06/25 04:50:52;;;;;;;14.80;10.23;;;;;;;20.44;80.71;94678.59;4210312;28;20074;-57
2023/06/25 04:52:54;;;;;;;13.27;9.63;;;;;;;20.48;80.45;94673.63;4210442;28;20048;-57
2023/06/25 04:54:56;;;;;;;16.08;9.98;;;;;;;20.52;80.46;94674.81;4197272;28;20052;-57
2023/06/25 04:56:57;;;;;;;12.27;9.18;;;;;;;20.53;80.02;94671.94;4208975;28;20153;-57
2023/06/25 04:58:59;;;;;;;14.63;9.93;;;;;;;20.55;80.01;94658.44;4199560;28;20466;-57
2023/06/25 05:01:02;;;;;;;14.60;9.77;;;;;;;20.55;79.92;94653.09;4208403;28;20352;-58
2023/06/25 05:03:04;;;;;;;12.02;8.77;;;;;;;20.56;79.89;94652.06;4202997;28;20049;-58
2023/06/25 05:05:06;;;;;;;16.13;9.95;;;;;;;20.57;79.91;94645.72;4206945;28;20177;-58
2023/06/25 05:07:08;;;;;;;12.13;9.52;;;;;;;20.54;79.95;94644.31;4208914;28;20083;-57
2023/06/25 05:09:10;;;;;;;15.48;10.07;;;;;;;20.57;79.87;94649.22;4209177;28;20143;-60
2023/06/25 05:11:12;;;;;;;15.00;9.55;;;;;;;20.61;79.56;94650.41;4209895;28;20044;-57
2023/06/25 05:13:13;;;;;;;13.98;9.15;;;;;;;20.59;79.05;94651.66;4209788;28;20055;-56
2023/06/25 05:15:16;;;;;;;16.08;9.93;;;;;;;20.59;79.32;94656.97;4203447;28;20482;-59
2023/06/25 05:17:18;;;;;;;14.43;9.23;;;;;;;20.36;79.23;94650.44;4210567;28;20496;-58
2023/06/25 05:19:20;;;;;;;14.52;9.32;;;;;;;20.36;80.03;94644.31;4210622;28;20052;-58
2023/06/25 05:21:21;;;;;;;12.82;9.77;;;;;;;20.42;80.29;94651.41;4209825;28;20052;-60
2023/06/25 05:23:24;;;;;;;12.85;8.80;;;;;;;20.30;79.38;94653.97;4208940;28;20569;-58
2023/06/25 05:25:26;;;;;;;11.57;9.07;;;;;;;20.23;79.48;94651.38;4210031;28;20048;-60
2023/06/25 05:27:27;;;;;;;12.25;8.73;;;;;;;19.90;80.22;94649.03;4202619;28;20045;-59
2023/06/25 05:29:29;;;;;;;12.82;8.32;;;;;;;19.74;80.93;94652.25;4199361;28;20051;-59
2023/06/25 05:31:31;;;;;;;13.32;8.70;;;;;;;19.63;81.67;94651.88;4209228;28;20044;-56
2023/06/25 05:33:32;;;;;;;14.65;9.63;;;;;;;19.54;81.93;94655.81;4210837;28;20044;-56
2023/06/25 05:35:34;;;;;;;14.98;9.48;;;;;;;19.61;82.43;94653.94;4207780;28;20048;-59
2023/06/25 05:37:36;;;;;;;13.68;9.43;;;;;;;19.71;82.35;94650.81;4209007;28;20379;-59
2023/06/25 05:39:38;;;;;;;14.43;8.98;;;;;;;19.86;82.00;94650.50;4208812;28;20048;-58
2023/06/25 05:41:40;;;;;;;11.07;8.43;;;;;;;19.92;80.75;94648.81;4208308;28;20176;-54
2023/06/25 05:43:41;;;;;;;12.65;8.60;;;;;;;19.95;80.44;94649.19;4210112;28;20048;-58
2023/06/25 05:45:43;;;;;;;11.02;8.15;;;;;;;20.05;80.42;94654.03;4209144;28;20067;-59
2023/06/25 05:47:45;;;;;;;11.40;8.32;;;;;;;20.21;80.33;94649.97;4202107;28;20459;-58
2023/06/25 05:49:47;;;;;;;13.63;8.43;;;;;;;20.40;80.67;94656.94;4207106;28;20056;-60
2023/06/25 05:51:48;;;;;;;16.13;8.95;;;;;;;20.61;80.84;94647.75;4205815;28;20398;-57
2023/06/25 05:53:54;;;;;;;11.48;9.30;;;;;;;20.81;80.80;94652.81;4194022;28;20102;-58
2023/06/25 05:55:55;;;;;;;13.82;8.75;;;;;;;21.01;80.43;94651.75;4205370;28;20423;-61
2023/06/25 05:57:57;;;;;;;14.13;8.40;;;;;;;21.15;80.37;94650.53;4209256;28;20052;-59
2023/06/25 05:59:59;;;;;;;11.77;8.80;;;;;;;21.23;79.45;94649.41;4211125;28;20518;-60
2023/06/25 06:02:01;;;;;;;13.38;9.05;;;;;;;21.34;78.92;94655.81;4209806;28;20055;-62
2023/06/25 06:04:04;;;;;;;12.45;9.18;;;;;;;21.40;77.98;94655.72;4205216;28;20070;-60
2023/06/25 06:06:06;;;;;;;11.43;8.38;;;;;;;21.45;77.11;94663.88;4209009;28;20507;-60
2023/06/25 06:08:08;;;;;;;13.57;8.73;;;;;;;21.44;76.20;94658.78;4208637;28;20054;-59
2023/06/25 06:10:13;;;;;;;12.25;9.20;;;;;;;21.48;76.47;94663.41;4208890;28;20052;-59
2023/06/25 06:12:15;;;;;;;15.20;8.98;;;;;;;21.50;76.23;94665.06;4208448;28;20048;-61
2023/06/25 06:14:17;;;;;;;12.15;8.25;;;;;;;21.54;76.76;94663.56;4209890;28;20461;-59
2023/06/25 06:16:18;;;;;;;12.00;9.18;;;;;;;21.62;76.94;94669.38;4204549;28;20143;-61
2023/06/25 06:18:20;;;;;;;13.27;8.48;;;;;;;21.64;76.28;94669.97;4198257;28;20053;-60
2023/06/25 06:20:22;;;;;;;12.05;8.88;;;;;;;21.68;75.41;94672.97;4209252;28;20688;-58
2023/06/25 06:22:24;;;;;;;11.68;8.75;;;;;;;21.71;75.55;94683.19;4208881;28;20051;-60
2023/06/25 06:24:27;;;;;;;11.25;8.52;;;;;;;21.76;75.55;94671.84;4209377;28;20074;-59
2023/06/25 06:26:28;;;;;;;15.05;9.15;;;;;;;21.79;75.15;94674.03;4208603;28;20056;-58
2023/06/25 06:28:31;;;;;;;11.95;8.82;;;;;;;21.82;75.04;94669.06;4197498;28;20040;-61
2023/06/25 06:30:33;;;;;;;14.20;9.18;;;;;;;21.89;75.95;94674.28;4209731;28;20135;-59
2023/06/25 06:32:35;;;;;;;13.40;8.75;;;;;;;21.95;75.07;94675.22;4207852;28;20076;-59
2023/06/25 06:34:37;;;;;;;13.18;8.70;;;;;;;21.95;74.87;94667.22;4209978;28;20040;-61
2023/06/25 06:36:38;;;;;;;12.00;8.35;;;;;;;21.96;74.36;94664.34;4210002;28;20052;-61
2023/06/25 06:38:40;;;;;;;11.73;8.68;;;;;;;22.02;74.03;94662.59;4205324;28;20367;-61
2023/06/25 06:40:42;;;;;;;14.18;8.30;;;;;;;22.07;74.24;94665.38;4203495;28;20040;-60
2023/06/25 06:42:44;;;;;;;15.93;8.68;;;;;;;22.05;74.49;94668.28;4202493;28;20460;-60
2023/06/25 06:44:45;;;;;;;10.52;8.02;;;;;;;22.05;74.56;94667.47;4210061;28;20086;-60
2023/06/25 06:46:47;;;;;;;12.30;8.13;;;;;;;22.02;74.29;94655.38;4208653;28;20421;-61
2023/06/25 06:48:49;;;;;;;9.85;7.47;;;;;;;22.07;73.56;94652.84;4204045;28;20044;-61
2023/06/25 06:50:50;;;;;;;10.27;7.05;;;;;;;22.12;72.64;94648.69;4202469;28;20424;-62
2023/06/25 06:52:52;;;;;;;10.38;7.18;;;;;;;22.23;72.57;94654.03;4209635;28;20052;-58
2023/06/25 06:54:54;;;;;;;10.27;6.47;;;;;;;22.27;72.36;94649.06;4209049;28;20055;-59
2023/06/25 06:56:56;;;;;;;8.90;6.20;;;;;;;22.27;71.23;94647.19;4212447;28;20159;-58
2023/06/25 06:58:57;;;;;;;11.50;6.05;;;;;;;22.31;71.39;94644.88;4202887;28;20044;-58
2023/06/25 07:00:59;;;;;;;11.18;6.22;;;;;;;22.36;71.38;94646.84;4209406;28;20048;-61
2023/06/25 07:03:01;;;;;;;7.97;6.15;;;;;;;22.38;71.08;94642.88;4201683;28;20048;-60
2023/06/25 07:05:03;;;;;;;8.93;6.75;;;;;;;22.47;71.30;94638.81;4211737;28;20048;-60
2023/06/25 07:07:05;;;;;;;12.07;6.70;;;;;;;22.53;71.52;94636.25;4212547;28;20167;-58
2023/06/25 07:09:07;;;;;;;12.30;7.18;;;;;;;22.60;71.74;94636.94;4198169;28;20113;-58
2023/06/25 07:11:08;;;;;;;6.97;5.80;;;;;;;22.64;70.19;94632.75;4213386;28;20413;-58
2023/06/25 07:13:10;;;;;;;8.55;5.88;;;;;;;22.60;69.13;94636.94;4204136;28;20061;-59
2023/06/25 07:15:12;;;;;;;9.15;6.15;;;;;;;22.57;70.16;94642.75;4208984;28;20509;-60
2023/06/25 07:17:14;;;;;;;8.55;6.55;;;;;;;22.57;70.41;94637.41;4211127;28;20140;-59
2023/06/25 07:19:15;;;;;;;8.70;6.25;;;;;;;22.60;69.65;94642.28;4212441;28;20056;-58
2023/06/25 07:21:17;;;;;;;9.10;6.50;;;;;;;22.55;69.85;94642.19;4212480;28;20109;-60
2023/06/25 07:23:19;;;;;;;7.10;5.90;;;;;;;22.52;69.77;94646.13;4211653;28;20066;-59
2023/06/25 07:25:21;;;;;;;8.40;5.82;;;;;;;22.54;69.85;94644.00;4200433;28;20052;-60
2023/06/25 07:27:22;;;;;;;8.50;6.00;;;;;;;22.53;69.46;94642.41;4212107;28;20048;-60
2023/06/25 07:29:24;;;;;;;7.85;5.68;;;;;;;22.57;70.13;94645.44;4211802;28;20132;-58
2023/06/25 07:31:26;;;;;;;7.70;5.72;;;;;;;22.62;69.36;94645.53;4212677;28;20083;-61
2023/06/25 07:33:27;;;;;;;8.27;5.97;;;;;;;22.65;68.14;94647.72;4212176;28;20413;-58
2023/06/25 07:35:29;;;;;;;9.63;6.75;;;;;;;22.69;68.38;94654.22;4210065;28;20105;-57
2023/06/25 07:37:31;;;;;;;9.10;6.03;;;;;;;22.70;67.91;94655.84;4209955;28;20074;-58
2023/06/25 07:39:33;;;;;;;10.45;7.15;;;;;;;22.37;68.15;94653.78;4211885;28;20485;-59
2023/06/25 07:41:35;;;;;;;9.52;7.00;;;;;;;22.06;69.67;94655.75;4209746;28;20127;-60
2023/06/25 07:43:36;;;;;;;11.20;7.80;;;;;;;21.74;70.91;94660.59;4212666;28;20452;-61
2023/06/25 07:45:38;;;;;;;12.07;8.23;;;;;;;21.40;71.83;94658.41;4210762;28;20123;-61
2023/06/25 07:47:41;;;;;;;12.18;7.95;;;;;;;21.20;73.28;94652.53;4210503;28;20044;-57
2023/06/25 07:49:43;;;;;;;12.30;8.40;;;;;;;21.31;73.21;94653.59;4211661;28;20241;-58
2023/06/25 07:51:52;;;;;;;11.77;8.25;;;;;;;21.23;72.63;94655.56;4199736;28;20441;-56
2023/06/25 07:53:54;;;;;;;10.77;7.72;;;;;;;21.24;71.49;94653.69;4211486;28;20134;-54
2023/06/25 07:55:56;;;;;;;9.77;7.45;;;;;;;21.33;72.08;94649.66;4211704;28;20058;-61
2023/06/25 07:58:04;;;;;;;12.73;8.10;;;;;;;21.21;72.07;94646.19;4211741;28;20116;-56
2023/06/25 08:00:07;;;;;;;9.10;7.43;;;;;;;21.09;72.06;94643.44;4211342;28;20044;-60
2023/06/25 08:02:08;;;;;;;9.43;7.18;;;;;;;21.03;72.28;94647.81;4211089;28;20670;-59
2023/06/25 08:04:10;;;;;;;10.20;7.50;;;;;;;21.06;71.98;94643.91;4208543;28;20172;-59
2023/06/25 08:06:12;;;;;;;11.15;7.93;;;;;;;21.20;72.05;94647.19;4211229;28;20048;-57
2023/06/25 08:08:14;;;;;;;12.65;7.65;;;;;;;21.37;71.98;94632.19;4210510;28;20131;-56
2023/06/25 08:10:16;;;;;;;11.48;7.70;;;;;;;21.41;71.91;94635.22;4211163;28;20060;-58
2023/06/25 08:12:17;;;;;;;11.32;8.13;;;;;;;21.54;71.52;94640.38;4209211;28;20079;-57
2023/06/25 08:14:19;;;;;;;11.57;7.68;;;;;;;21.56;70.42;94643.63;4205312;28;20040;-56
2023/06/25 08:16:22;;;;;;;10.15;6.22;;;;;;;21.47;69.43;94645.81;4204822;28;20047;-58
2023/06/25 08:18:24;;;;;;;7.68;6.60;;;;;;;21.36;70.02;94643.06;4211300;28;20048;-61
2023/06/25 08:20:26;;;;;;;7.57;6.47;;;;;;;21.08;70.33;94639.19;4210352;28;20060;-59
2023/06/25 08:22:28;;;;;;;8.30;5.90;;;;;;;20.95;69.32;94647.31;4210947;28;20056;-59
2023/06/25 08:24:29;;;;;;;8.48;5.70;;;;;;;20.99;70.45;94640.50;4211737;28;20061;-60
2023/06/25 08:26:31;;;;;;;8.93;5.80;;;;;;;20.94;70.90;94651.84;4210702;28;20060;-58
2023/06/25 08:28:33;;;;;;;8.18;5.78;;;;;;;21.28;69.88;94637.03;4199617;28;20042;-58
2023/06/25 08:30:34;;;;;;;9.95;6.38;;;;;;;21.64;69.22;94631.84;4210044;28;20048;-60
2023/06/25 08:32:36;;;;;;;6.60;5.88;;;;;;;21.91;68.93;94631.38;4201779;28;20044;-59
2023/06/25 08:34:39;;;;;;;7.43;5.68;;;;;;;22.31;67.73;94628.88;4209816;28;20183;-60
2023/06/25 08:36:41;;;;;;;8.63;6.07;;;;;;;22.51;66.80;94633.00;4210720;28;20447;-58
2023/06/25 08:38:43;;;;;;;7.25;5.70;;;;;;;22.55;66.49;94634.16;4207511;28;20048;-60
2023/06/25 08:40:48;;;;;;;8.35;5.93;;;;;;;22.72;65.78;94634.25;4204366;28;20049;-59
2023/06/25 08:42:50;;;;;;;6.60;5.32;;;;;;;22.95;65.00;94633.34;4205026;28;20081;-58
2023/06/25 08:44:52;;;;;;;7.10;4.80;;;;;;;23.30;65.12;94628.72;4210463;28;20086;-59
2023/06/25 08:46:54;;;;;;;8.65;6.88;;;;;;;23.65;64.05;94630.38;4209945;28;20445;-59
2023/06/25 08:48:58;;;;;;;6.13;5.50;;;;;;;23.79;61.61;94622.88;4203626;28;20048;-60
2023/06/25 08:51:05;;;;;;;8.68;5.45;;;;;;;24.03;61.17;94620.84;4199133;28;20080;-61
2023/06/25 08:53:07;;;;;;;7.05;4.13;;;;;;;24.22;59.49;94621.41;4207380;28;20125;-55
2023/06/25 08:55:10;;;;;;;5.90;4.30;;;;;;;24.26;58.70;94624.38;4210645;28;20698;-59
2023/06/25 08:57:12;;;;;;;4.63;3.72;;;;;;;24.10;57.79;94626.81;4210980;28;20070;-62
2023/06/25 08:59:14;;;;;;;4.63;3.40;;;;;;;24.21;58.41;94618.94;4211367;28;20069;-58
2023/06/25 09:01:16;;;;;;;4.60;3.40;;;;;;;24.45;57.72;94616.88;4210586;28;20060;-60
2023/06/25 09:03:18;;;;;;;4.20;3.60;;;;;;;24.44;57.74;94618.75;4207928;28;20040;-61
2023/06/25 09:05:27;;;;;;;6.63;3.60;;;;;;;24.40;58.99;94611.47;4210527;28;20048;-62
2023/06/25 09:07:29;;;;;;;6.57;4.05;;;;;;;24.49;58.82;94612.66;4196766;28;20451;-56
2023/06/25 09:09:30;;;;;;;5.20;3.80;;;;;;;24.32;58.83;94618.03;4210423;28;20123;-59
2023/06/25 09:11:32;;;;;;;4.95;4.07;;;;;;;24.21;58.95;94618.94;4210318;28;20145;-56
2023/06/25 09:13:34;;;;;;;4.68;3.83;;;;;;;23.95;59.48;94625.81;4211214;28;20468;-58
2023/06/25 09:15:41;;;;;;;6.00;3.85;;;;;;;23.28;60.99;94617.44;4204017;28;20052;-59
2023/06/25 09:17:43;;;;;;;5.65;4.10;;;;;;;23.46;61.42;94624.44;4204580;28;20070;-59
2023/06/25 09:19:44;;;;;;;6.00;4.55;;;;;;;23.67;60.33;94617.56;4205288;28;20551;-60
2023/06/25 09:21:47;;;;;;;6.30;4.10;;;;;;;23.90;60.13;94605.13;4209490;28;20649;-57
2023/06/25 09:23:53;;;;;;;4.95;4.28;;;;;;;24.18;59.63;94598.03;4210072;28;20101;-62
2023/06/25 09:25:56;;;;;;;5.30;4.07;;;;;;;24.35;58.53;94606.00;4210900;28;20084;-59
2023/06/25 09:28:00;;;;;;;6.85;5.55;;;;;;;24.46;58.38;94603.25;4199479;28;20059;-58
2023/06/25 09:30:02;;;;;;;6.10;4.57;;;;;;;24.65;58.51;94590.41;4210084;28;20055;-61